createdAt,value
2019-04-14T00:04:13.981Z,99.90
2019-04-14T00:07:02.012Z,99.90
2019-04-14T00:09:50.039Z,99.90
2019-04-14T00:12:38.467Z,99.90
2019-04-14T00:15:33.861Z,99.90
2019-04-14T00:18:16.462Z,99.90
2019-04-14T00:21:04.934Z,99.90
2019-04-14T00:23:54.463Z,99.90
2019-04-14T00:26:44.388Z,99.90
2019-04-14T00:29:32.974Z,99.90
2019-04-14T00:32:02.977Z,99.90
2019-04-14T00:38:37.152Z,99.90
2019-04-14T00:44:45.657Z,99.90
2019-04-14T00:47:51.718Z,99.90
2019-04-14T00:50:29.957Z,99.90
2019-04-14T00:53:18.504Z,99.90
2019-04-14T00:56:08.352Z,99.90
2019-04-14T00:58:58.268Z,99.90
2019-04-14T01:01:48.374Z,99.90
2019-04-14T01:04:38.226Z,99.90
2019-04-14T01:07:26.856Z,99.90
2019-04-14T01:10:15.025Z,99.90
2019-04-14T01:13:03.066Z,99.90
2019-04-14T01:15:58.666Z,99.90
2019-04-14T01:18:40.835Z,99.90
2019-04-14T01:21:28.849Z,99.90
2019-04-14T01:24:18.467Z,99.90
2019-04-14T01:27:08.028Z,99.90
2019-04-14T01:29:56.641Z,99.90
2019-04-14T01:32:37.502Z,99.90
2019-04-14T01:35:18.673Z,99.90
2019-04-14T01:37:59.445Z,99.90
2019-04-14T01:40:40.244Z,99.90
2019-04-14T01:43:21.355Z,99.90
2019-04-14T01:46:13.759Z,99.90
2019-04-14T01:48:45.377Z,99.90
2019-04-14T01:54:56.872Z,99.90
2019-04-14T01:57:48.233Z,99.90
2019-04-14T02:00:49.291Z,99.90
2019-04-14T02:03:32.295Z,99.90
2019-04-14T02:06:13.712Z,99.90
2019-04-14T02:08:54.785Z,99.90
2019-04-14T02:11:35.599Z,99.90
2019-04-14T02:14:16.853Z,99.90
2019-04-14T02:17:00.736Z,99.90
2019-04-14T02:19:41.588Z,99.90
2019-04-14T02:22:22.972Z,99.90
2019-04-14T02:25:03.876Z,99.90
2019-04-14T02:27:45.057Z,99.90
2019-04-14T02:30:33.976Z,99.90
2019-04-14T02:33:40.352Z,99.90
2019-04-14T02:36:21.697Z,99.90
2019-04-14T02:41:49.309Z,99.90
2019-04-14T02:44:33.626Z,99.90
2019-04-14T02:47:18.167Z,99.90
2019-04-14T02:49:50.801Z,99.90
2019-04-14T02:52:35.513Z,99.90
2019-04-14T02:55:30.016Z,99.90
2019-04-14T02:58:03.535Z,99.90
2019-04-14T03:00:41.436Z,99.90
2019-04-14T03:06:05.383Z,99.90
2019-04-14T03:09:16.345Z,99.90
2019-04-14T03:11:31.404Z,99.90
2019-04-14T03:14:17.400Z,99.90
2019-04-14T03:23:19.408Z,99.90
2019-04-14T03:26:00.887Z,99.90
2019-04-14T03:28:44.275Z,99.90
2019-04-14T03:32:02.507Z,99.90
2019-04-14T03:37:16.371Z,99.90
2019-04-14T03:42:28.870Z,99.90
2019-04-14T03:45:07.531Z,99.90
2019-04-14T03:48:15.054Z,99.90
2019-04-14T03:55:41.588Z,99.90
2019-04-14T03:58:15.937Z,99.90
2019-04-14T04:00:45.127Z,99.90
2019-04-14T04:03:34.884Z,99.90
2019-04-14T04:06:22.979Z,99.90
2019-04-14T04:09:11.038Z,99.90
2019-04-14T04:12:00.504Z,99.90
2019-04-14T04:14:49.028Z,99.90
2019-04-14T04:17:56.380Z,99.90
2019-04-14T04:21:03.479Z,99.90
2019-04-14T04:24:10.776Z,99.90
2019-04-14T04:27:20.043Z,99.90
2019-04-14T04:30:27.666Z,99.90
2019-04-14T04:33:19.871Z,99.90
2019-04-14T04:36:07.207Z,99.90
2019-04-14T04:39:08.205Z,99.90
2019-04-14T04:41:49.458Z,99.90
2019-04-14T04:44:31.333Z,99.90
2019-04-14T04:47:12.700Z,99.90
2019-04-14T04:49:53.522Z,99.90
2019-04-14T04:52:34.468Z,99.90
2019-04-14T04:55:15.603Z,99.90
2019-04-14T04:57:44.492Z,99.90
2019-04-14T05:00:33.057Z,99.90
2019-04-14T05:03:23.249Z,99.90
2019-04-14T05:06:31.244Z,99.90
2019-04-14T05:12:58.963Z,99.90
2019-04-14T05:15:51.068Z,99.90
2019-04-14T05:18:40.131Z,99.90
2019-04-14T05:21:28.213Z,99.90
2019-04-14T05:24:16.218Z,99.90
2019-04-14T05:27:04.220Z,99.90
2019-04-14T05:29:52.189Z,99.90
2019-04-14T05:32:21.624Z,99.90
2019-04-14T05:34:52.190Z,99.90
2019-04-14T05:37:42.117Z,99.90
2019-04-14T05:40:32.169Z,99.90
2019-04-14T05:43:30.198Z,99.90
2019-04-14T05:46:12.086Z,99.90
2019-04-14T05:49:02.094Z,99.90
2019-04-14T05:51:50.855Z,99.90
2019-04-14T05:54:40.340Z,99.90
2019-04-14T05:57:28.846Z,99.90
2019-04-14T06:03:27.762Z,99.90
2019-04-14T06:06:16.819Z,99.90
2019-04-14T06:09:06.524Z,99.90
2019-04-14T06:11:54.565Z,99.90
2019-04-14T06:14:42.547Z,99.90
2019-04-14T06:17:30.635Z,99.90
2019-04-14T06:20:18.970Z,99.90
2019-04-14T06:23:06.979Z,99.90
2019-04-14T06:25:36.833Z,99.90
2019-04-14T06:28:25.256Z,99.90
2019-04-14T06:31:32.315Z,99.90
2019-04-14T06:34:17.897Z,99.90
2019-04-14T06:36:56.989Z,99.90
2019-04-14T06:39:32.100Z,99.90
2019-04-14T06:42:01.094Z,99.90
2019-04-14T06:44:30.026Z,99.90
2019-04-14T06:46:59.015Z,99.90
2019-04-14T06:49:27.985Z,99.90
2019-04-14T06:51:56.743Z,99.90
2019-04-14T06:54:25.592Z,99.90
2019-04-14T06:56:54.470Z,99.90
2019-04-14T06:59:23.351Z,99.90
2019-04-14T07:01:52.117Z,99.90
2019-04-14T07:04:20.985Z,99.90
2019-04-14T07:06:51.405Z,99.90
2019-04-14T07:09:20.735Z,99.90
2019-04-14T07:11:49.677Z,99.90
2019-04-14T07:14:18.408Z,99.90
2019-04-14T07:16:47.895Z,99.90
2019-04-14T07:19:16.776Z,99.90
2019-04-14T07:21:45.573Z,99.90
2019-04-14T07:24:14.347Z,99.90
2019-04-14T07:26:43.171Z,99.90
2019-04-14T07:29:14.641Z,99.90
2019-04-14T07:32:04.877Z,99.90
2019-04-14T07:35:05.122Z,99.90
2019-04-14T07:37:56.234Z,99.90
2019-04-14T07:40:54.029Z,99.90
2019-04-14T07:43:36.789Z,99.90
2019-04-14T07:46:10.428Z,99.90
2019-04-14T07:48:48.762Z,99.90
2019-04-14T07:51:35.718Z,99.90
2019-04-14T07:54:09.555Z,99.90
2019-04-14T07:57:06.525Z,99.90
2019-04-14T07:59:50.482Z,99.90
2019-04-14T08:02:27.448Z,99.90
2019-04-14T08:05:08.479Z,99.90
2019-04-14T08:07:37.229Z,99.90
2019-04-14T08:10:07.190Z,99.90
2019-04-14T08:12:35.976Z,99.90
2019-04-14T08:15:05.924Z,99.90
2019-04-14T08:17:34.956Z,99.90
2019-04-14T08:20:04.952Z,99.90
2019-04-14T08:22:33.988Z,99.90
2019-04-14T08:25:02.863Z,99.90
2019-04-14T08:27:32.188Z,97.80
2019-04-14T08:30:01.079Z,94.50
2019-04-14T08:32:30.013Z,97.90
2019-04-14T08:34:58.884Z,96.90
2019-04-14T08:37:27.797Z,97.30
2019-04-14T08:39:56.876Z,99.00
2019-04-14T08:42:43.942Z,99.90
2019-04-14T08:45:22.492Z,96.20
2019-04-14T08:47:57.190Z,99.60
2019-04-14T08:50:39.559Z,97.40
2019-04-14T08:53:15.681Z,99.90
2019-04-14T08:56:04.051Z,99.90
2019-04-14T08:58:48.941Z,99.90
2019-04-14T09:01:40.301Z,99.90
2019-04-14T09:04:22.953Z,99.90
2019-04-14T09:07:11.197Z,98.40
2019-04-14T09:09:42.829Z,98.20
2019-04-14T09:12:16.298Z,97.50
2019-04-14T09:14:56.150Z,98.00
2019-04-14T09:17:17.220Z,96.90
2019-04-14T09:19:47.563Z,97.40
2019-04-14T09:22:16.863Z,95.50
2019-04-14T09:24:46.500Z,95.10
2019-04-14T09:27:15.854Z,93.30
2019-04-14T09:29:45.090Z,92.60
2019-04-14T09:32:14.788Z,90.90
2019-04-14T09:34:43.789Z,93.80
2019-04-14T09:37:13.018Z,94.00
2019-04-14T09:39:41.754Z,92.10
2019-04-14T09:42:10.540Z,95.60
2019-04-14T09:44:40.115Z,94.70
2019-04-14T09:47:09.394Z,90.60
2019-04-14T09:49:38.772Z,86.90
2019-04-14T09:52:08.274Z,76.70
2019-04-14T09:54:37.514Z,79.70
2019-04-14T09:57:06.676Z,92.90
2019-04-14T09:59:35.481Z,76.40
2019-04-14T10:02:06.904Z,85.60
2019-04-14T10:04:35.780Z,79.00
2019-04-14T10:07:05.025Z,82.00
2019-04-14T10:09:34.029Z,75.60
2019-04-14T10:12:02.808Z,73.10
2019-04-14T10:14:31.892Z,70.10
2019-04-14T10:17:01.438Z,71.40
2019-04-14T10:19:31.612Z,68.50
2019-04-14T10:22:00.695Z,79.80
2019-04-14T10:24:29.787Z,69.00
2019-04-14T10:26:59.581Z,70.00
2019-04-14T10:29:28.708Z,71.30
2019-04-14T10:31:57.498Z,73.00
2019-04-14T10:34:26.272Z,75.90
2019-04-14T10:36:55.027Z,74.50
2019-04-14T10:39:23.861Z,69.40
2019-04-14T10:41:52.608Z,67.90
2019-04-14T10:44:24.057Z,73.50
2019-04-14T10:46:52.825Z,68.80
2019-04-14T10:49:22.128Z,64.20
2019-04-14T10:51:51.227Z,78.10
2019-04-14T10:54:20.571Z,65.30
2019-04-14T10:56:50.909Z,63.30
2019-04-14T10:59:20.116Z,62.20
2019-04-14T11:01:49.277Z,60.70
2019-04-14T11:04:18.296Z,64.50
2019-04-14T11:07:08.514Z,66.60
2019-04-14T11:09:37.830Z,65.00
2019-04-14T11:12:07.400Z,65.60
2019-04-14T11:14:36.489Z,65.20
2019-04-14T11:17:05.408Z,64.70
2019-04-14T11:19:34.577Z,63.90
2019-04-14T11:22:03.339Z,64.20
2019-04-14T11:24:32.312Z,63.10
2019-04-14T11:27:01.288Z,62.60
2019-04-14T11:29:30.564Z,68.30
2019-04-14T11:32:15.757Z,61.30
2019-04-14T11:34:50.538Z,60.80
2019-04-14T11:37:37.173Z,64.00
2019-04-14T11:40:08.566Z,62.20
2019-04-14T11:42:37.534Z,58.50
2019-04-14T11:45:06.521Z,62.10
2019-04-14T11:47:35.497Z,68.20
2019-04-14T11:50:04.941Z,66.00
2019-04-14T11:52:35.742Z,61.80
2019-04-14T11:55:05.234Z,64.50
2019-04-14T11:57:34.298Z,61.80
2019-04-14T12:00:14.864Z,59.30
2019-04-14T12:03:08.960Z,62.00
2019-04-14T12:06:02.754Z,70.30
2019-04-14T12:08:45.719Z,61.90
2019-04-14T12:11:14.796Z,60.70
2019-04-14T12:13:43.952Z,61.80
2019-04-14T12:16:13.083Z,60.60
2019-04-14T12:18:42.140Z,60.00
2019-04-14T12:21:10.967Z,60.90
2019-04-14T12:23:43.700Z,59.90
2019-04-14T12:26:13.240Z,59.50
2019-04-14T12:28:43.226Z,58.10
2019-04-14T12:31:13.361Z,59.70
2019-04-14T12:33:43.958Z,63.80
2019-04-14T12:36:14.666Z,62.00
2019-04-14T12:38:43.917Z,63.80
2019-04-14T12:41:17.956Z,61.80
2019-04-14T12:43:56.580Z,63.80
2019-04-14T12:46:56.798Z,61.70
2019-04-14T12:49:30.214Z,65.50
2019-04-14T12:52:21.442Z,67.80
2019-04-14T12:54:49.617Z,66.60
2019-04-14T12:57:25.085Z,64.50
2019-04-14T12:59:54.492Z,68.60
2019-04-14T13:02:30.095Z,65.90
2019-04-14T13:04:58.913Z,63.70
2019-04-14T13:07:27.833Z,63.40
2019-04-14T13:09:56.765Z,61.60
2019-04-14T13:12:25.596Z,71.40
2019-04-14T13:14:54.725Z,64.40
2019-04-14T13:17:23.777Z,64.20
2019-04-14T13:19:52.902Z,62.00
2019-04-14T13:22:33.224Z,65.40
2019-04-14T13:24:52.783Z,66.30
2019-04-14T13:27:23.248Z,67.70
2019-04-14T13:29:52.694Z,65.30
2019-04-14T13:32:40.703Z,69.40
2019-04-14T13:35:21.944Z,65.70
2019-04-14T13:38:02.754Z,67.20
2019-04-14T13:40:43.247Z,67.00
2019-04-14T13:43:23.809Z,64.20
2019-04-14T13:46:04.181Z,68.10
2019-04-14T13:48:44.775Z,65.10
2019-04-14T13:51:25.782Z,66.70
2019-04-14T13:54:06.355Z,66.80
2019-04-14T13:56:47.280Z,67.50
2019-04-14T13:59:28.265Z,67.40
2019-04-14T14:02:09.857Z,65.10
2019-04-14T14:04:52.247Z,65.10
2019-04-14T14:07:33.033Z,67.30
2019-04-14T14:10:14.259Z,69.80
2019-04-14T14:12:59.247Z,67.70
2019-04-14T14:15:47.347Z,65.50
2019-04-14T14:18:54.727Z,66.40
2019-04-14T14:22:02.237Z,70.00
2019-04-14T14:28:22.576Z,67.50
2019-04-14T14:31:10.828Z,69.60
2019-04-14T14:33:52.055Z,73.50
2019-04-14T14:36:32.515Z,70.90
2019-04-14T14:39:14.972Z,71.10
2019-04-14T14:41:55.883Z,71.70
2019-04-14T14:50:45.229Z,72.60
2019-04-14T14:53:25.909Z,71.30
2019-04-14T14:56:06.792Z,71.30
2019-04-14T14:58:48.005Z,67.20
2019-04-14T15:01:29.042Z,67.90
2019-04-14T15:04:09.766Z,69.60
2019-04-14T15:06:50.540Z,70.40
2019-04-14T15:09:31.311Z,72.70
2019-04-14T15:12:12.248Z,70.10
2019-04-14T15:14:53.148Z,70.80
2019-04-14T15:17:33.530Z,74.90
2019-04-14T15:20:14.575Z,72.90
2019-04-14T15:22:55.512Z,75.80
2019-04-14T15:25:36.553Z,74.50
2019-04-14T15:28:17.496Z,74.00
2019-04-14T15:30:58.252Z,75.70
2019-04-14T15:33:39.371Z,78.50
2019-04-14T15:36:20.388Z,78.60
2019-04-14T15:39:01.252Z,80.40
2019-04-14T15:41:42.515Z,82.20
2019-04-14T15:44:22.807Z,82.20
2019-04-14T15:47:03.547Z,83.50
2019-04-14T15:49:44.448Z,82.70
2019-04-14T15:52:25.672Z,84.50
2019-04-14T15:55:06.323Z,89.30
2019-04-14T16:01:02.563Z,90.90
2019-04-14T16:03:51.152Z,90.50
2019-04-14T16:06:50.850Z,91.90
2019-04-14T16:09:44.714Z,91.50
2019-04-14T16:15:30.495Z,91.70
2019-04-14T16:18:30.828Z,91.60
2019-04-14T16:21:11.959Z,92.10
2019-04-14T16:23:52.774Z,92.60
2019-04-14T16:29:56.570Z,91.60
2019-04-14T16:32:56.635Z,92.30
2019-04-14T16:35:37.231Z,93.50
2019-04-14T16:38:17.607Z,94.70
2019-04-14T16:40:58.263Z,94.20
2019-04-14T16:43:39.330Z,94.40
2019-04-14T16:46:19.902Z,95.60
2019-04-14T16:49:00.631Z,96.30
2019-04-14T16:51:46.227Z,97.30
2019-04-14T16:54:46.429Z,99.10
2019-04-14T16:57:46.483Z,98.30
2019-04-14T17:00:31.629Z,98.20
2019-04-14T17:03:13.095Z,99.00
2019-04-14T17:05:53.760Z,99.90
2019-04-14T17:08:34.449Z,99.90
2019-04-14T17:11:15.209Z,99.90
2019-04-14T17:14:01.516Z,99.90
2019-04-14T17:17:01.528Z,99.90
2019-04-14T17:20:03.829Z,99.90
2019-04-14T17:22:55.126Z,99.90
2019-04-14T17:25:41.479Z,99.90
2019-04-14T17:28:27.497Z,99.90
2019-04-14T17:31:26.957Z,99.90
2019-04-14T17:34:22.752Z,99.90
2019-04-14T17:37:11.883Z,99.90
2019-04-14T17:40:00.456Z,99.90
2019-04-14T17:42:46.623Z,99.90
2019-04-14T17:45:46.163Z,99.90
2019-04-14T17:48:45.571Z,99.90
2019-04-14T17:51:33.291Z,99.90
2019-04-14T17:54:33.305Z,99.90
2019-04-14T17:57:32.991Z,99.90
2019-04-14T18:00:18.611Z,99.90
2019-04-14T18:03:18.544Z,99.90
2019-04-14T18:06:04.751Z,99.90
2019-04-14T18:09:05.861Z,99.90
2019-04-14T18:11:56.003Z,99.90
2019-04-14T18:14:55.635Z,99.90
2019-04-14T18:17:58.004Z,99.90
2019-04-14T18:20:42.396Z,99.90
2019-04-14T18:23:22.760Z,99.90
2019-04-14T18:26:03.040Z,99.90
2019-04-14T18:29:02.872Z,99.90
2019-04-14T18:32:08.657Z,99.90
2019-04-14T18:35:10.964Z,99.90
2019-04-14T18:38:10.975Z,99.90
2019-04-14T18:40:58.787Z,99.90
2019-04-14T18:44:05.847Z,99.90
2019-04-14T18:47:12.894Z,99.90
2019-04-14T18:50:20.372Z,99.90
2019-04-14T18:53:12.559Z,99.90
2019-04-14T18:56:15.071Z,99.90
2019-04-14T18:59:22.143Z,99.90
2019-04-14T19:02:12.244Z,99.90
2019-04-14T19:05:00.254Z,99.90
2019-04-14T19:07:48.215Z,99.90
2019-04-14T19:10:36.211Z,99.90
2019-04-14T19:22:26.159Z,99.90
2019-04-14T19:25:14.238Z,99.90
2019-04-14T19:28:02.212Z,99.90
2019-04-14T19:30:50.632Z,99.90
2019-04-14T19:33:38.632Z,99.90
2019-04-14T19:36:26.720Z,99.90
2019-04-14T19:39:14.700Z,99.90
2019-04-14T19:42:02.716Z,99.90
2019-04-14T19:44:50.919Z,99.90
2019-04-14T19:47:38.958Z,99.90
2019-04-14T19:50:26.920Z,99.90
2019-04-14T19:53:15.088Z,99.90
2019-04-14T19:56:03.108Z,99.90
2019-04-14T19:58:51.123Z,99.90
2019-04-14T20:01:39.130Z,99.90
2019-04-14T20:04:27.191Z,99.90
2019-04-14T20:07:15.327Z,99.90
2019-04-14T20:10:03.411Z,99.90
2019-04-14T20:12:51.583Z,99.90
2019-04-14T20:15:58.644Z,99.90
2019-04-14T20:19:10.536Z,99.90
2019-04-14T20:22:14.457Z,99.90
2019-04-14T20:25:33.154Z,99.90
2019-04-14T20:28:30.625Z,99.90
2019-04-14T20:31:37.897Z,99.90
2019-04-14T20:34:19.300Z,99.90
2019-04-14T20:36:59.833Z,99.90
2019-04-14T20:42:52.912Z,99.90
2019-04-14T20:45:33.724Z,99.90
2019-04-14T20:48:14.601Z,99.90
2019-04-14T20:50:55.412Z,99.90
2019-04-14T20:53:36.140Z,99.90
2019-04-14T20:56:16.909Z,99.90
2019-04-14T20:58:57.624Z,99.90
2019-04-14T21:01:41.842Z,99.90
2019-04-14T21:07:53.273Z,99.90
2019-04-14T21:10:41.943Z,99.90
2019-04-14T21:13:41.568Z,99.90
2019-04-14T21:16:19.714Z,99.90
2019-04-14T21:19:12.384Z,99.90
2019-04-14T21:22:19.509Z,99.90
2019-04-14T21:25:26.676Z,99.90
2019-04-14T21:28:21.528Z,99.90
2019-04-14T21:31:28.888Z,99.90
2019-04-14T21:34:13.005Z,99.90
2019-04-14T21:37:13.342Z,99.90
2019-04-14T21:40:12.898Z,99.90
2019-04-14T21:42:53.574Z,99.90
2019-04-14T21:45:34.309Z,99.90
2019-04-14T21:48:15.201Z,99.90
2019-04-14T21:50:56.265Z,99.90
2019-04-14T21:53:37.085Z,99.90
2019-04-14T21:56:13.280Z,99.90
2019-04-14T21:59:14.752Z,99.90
2019-04-14T22:02:21.868Z,99.90
2019-04-14T22:08:25.040Z,99.90
2019-04-14T22:11:00.062Z,99.90
2019-04-14T22:13:28.868Z,99.90
2019-04-14T22:16:16.856Z,99.90
2019-04-14T22:19:04.852Z,99.90
2019-04-14T22:21:52.847Z,99.90
2019-04-14T22:24:40.836Z,99.90
2019-04-14T22:27:28.871Z,99.90
2019-04-14T22:30:16.955Z,99.90
2019-04-14T22:33:05.092Z,99.90
2019-04-14T22:35:46.189Z,99.90
2019-04-14T22:38:26.857Z,99.90
2019-04-14T22:41:07.632Z,99.90
2019-04-14T22:43:48.616Z,99.90
2019-04-14T22:46:28.939Z,99.90
2019-04-14T22:49:09.659Z,99.90
2019-04-14T22:51:50.389Z,99.90
2019-04-14T22:54:31.315Z,99.90
2019-04-14T22:57:12.088Z,99.90
2019-04-14T22:59:53.213Z,99.90
2019-04-14T23:02:52.947Z,99.90
2019-04-14T23:05:52.579Z,99.90
2019-04-14T23:08:52.490Z,99.90
2019-04-14T23:11:52.463Z,99.90
2019-04-14T23:14:40.000Z,99.90
2019-04-14T23:17:40.144Z,99.90
2019-04-14T23:20:26.246Z,99.90
2019-04-14T23:23:25.670Z,99.90
2019-04-14T23:26:06.736Z,99.90
2019-04-14T23:28:47.639Z,99.90
2019-04-14T23:31:28.554Z,99.90
2019-04-14T23:34:09.013Z,99.90
2019-04-14T23:36:49.693Z,99.90
2019-04-14T23:39:30.324Z,99.90
2019-04-14T23:42:11.059Z,99.90
2019-04-14T23:44:51.669Z,99.90
2019-04-14T23:47:32.780Z,99.90
2019-04-14T23:50:13.580Z,99.90
2019-04-14T23:52:54.386Z,99.90
2019-04-14T23:55:35.315Z,99.90
2019-04-14T23:58:16.324Z,99.90
